Time;durP1;ratioP1;P1;durP2;ratioP2;P2;SDS_P1;SDS_P2;PMS_P1;PMS_P2;Temp;Humidity;BMP_temperature;BMP_pressure;BME280_temperature;BME280_humidity;BME280_pressure;Samples;Min_cycle;Max_cycle;Signal;HPM_P1;HPM_P2
2023/12/02 00:04:24;;;;;;;7.03;3.42;;;;;;;0.86;64.38;99392.72;10318388;28;20046;-59
2023/12/02 00:09:26;;;;;;;8.18;3.10;;;;;;;0.82;64.00;99393.16;10321301;28;20140;-60
2023/12/02 00:14:27;;;;;;;10.02;4.40;;;;;;;0.80;64.59;99395.91;10316780;28;20054;-58
2023/12/02 00:19:29;;;;;;;6.93;2.97;;;;;;;0.73;63.68;99400.06;10315815;28;20051;-58
2023/12/02 00:24:30;;;;;;;6.68;2.55;;;;;;;0.70;64.54;99401.19;10320452;28;20111;-58
2023/12/02 00:29:32;;;;;;;7.18;2.55;;;;;;;0.61;64.30;99396.72;10307636;28;20082;-58
2023/12/02 00:34:33;;;;;;;4.45;1.75;;;;;;;0.54;64.65;99393.78;10318961;28;20057;-59
2023/12/02 00:39:35;;;;;;;6.00;2.42;;;;;;;0.38;63.91;99399.59;10326372;28;20057;-59
2023/12/02 00:44:36;;;;;;;5.22;2.03;;;;;;;0.25;64.03;99387.56;10321033;28;20042;-58
2023/12/02 00:49:38;;;;;;;5.82;2.50;;;;;;;0.11;64.67;99386.97;10316818;28;20053;-59
2023/12/02 00:54:39;;;;;;;6.75;2.38;;;;;;;0.12;64.03;99401.00;10319342;28;20133;-59
2023/12/02 00:59:40;;;;;;;7.10;2.40;;;;;;;0.06;64.81;99402.38;10322641;28;20048;-58
2023/12/02 01:04:42;;;;;;;9.32;3.08;;;;;;;0.07;64.60;99398.75;10329261;28;20038;-59
2023/12/02 01:09:43;;;;;;;5.20;1.95;;;;;;;0.08;63.86;99391.66;10324061;28;20069;-59
2023/12/02 01:14:45;;;;;;;5.90;2.38;;;;;;;0.08;63.79;99404.88;10321936;28;20597;-59
2023/12/02 01:19:46;;;;;;;5.80;2.38;;;;;;;0.12;64.47;99407.13;10322752;28;20513;-59
2023/12/02 01:24:48;;;;;;;8.45;2.55;;;;;;;0.29;63.60;99418.88;10315899;28;20042;-59
2023/12/02 01:29:49;;;;;;;5.20;2.00;;;;;;;0.32;63.85;99426.56;10320705;28;20046;-59
2023/12/02 01:34:51;;;;;;;4.28;2.20;;;;;;;0.50;63.74;99439.97;10306570;28;20054;-59
2023/12/02 01:39:53;;;;;;;5.05;2.22;;;;;;;0.59;64.44;99443.59;10316695;28;20053;-60
2023/12/02 01:44:54;;;;;;;4.93;1.83;;;;;;;0.66;63.98;99442.09;10324569;28;20127;-59
2023/12/02 01:49:59;;;;;;;4.55;1.92;;;;;;;0.70;64.46;99442.69;10315356;28;20492;-59
2023/12/02 01:55:00;;;;;;;8.20;2.40;;;;;;;0.72;64.59;99451.31;10319529;28;20043;-59
2023/12/02 02:00:03;;;;;;;6.05;2.28;;;;;;;0.74;63.84;99449.38;10313012;28;20053;-59
2023/12/02 02:05:05;;;;;;;5.45;2.22;;;;;;;0.74;64.01;99449.38;10325800;28;20057;-59
2023/12/02 02:10:07;;;;;;;7.47;2.75;;;;;;;0.83;63.59;99443.28;10332039;28;20049;-59
2023/12/02 02:15:09;;;;;;;6.72;2.50;;;;;;;0.82;64.05;99459.28;10329788;28;20050;-59
2023/12/02 02:20:11;;;;;;;6.60;2.78;;;;;;;0.86;63.55;99453.56;10331053;28;20518;-59
2023/12/02 02:25:12;;;;;;;4.82;2.22;;;;;;;0.86;63.61;99452.72;10329579;28;20034;-59
2023/12/02 02:30:13;;;;;;;5.90;2.15;;;;;;;0.89;64.23;99445.38;10323251;28;20045;-59
2023/12/02 02:35:16;;;;;;;4.43;1.92;;;;;;;0.89;64.00;99441.88;10318043;28;20061;-59
2023/12/02 02:40:17;;;;;;;4.85;2.08;;;;;;;0.92;63.91;99431.84;10331271;28;20047;-59
2023/12/02 02:45:18;;;;;;;5.78;2.60;;;;;;;0.92;64.37;99438.97;10314659;28;20416;-59
2023/12/02 02:50:20;;;;;;;4.18;2.17;;;;;;;0.95;63.25;99433.41;10323984;28;20065;-59
2023/12/02 02:55:21;;;;;;;8.38;2.75;;;;;;;0.91;63.73;99442.56;10319297;28;20035;-59
2023/12/02 03:00:23;;;;;;;5.55;2.25;;;;;;;0.94;64.27;99440.50;10320625;28;20367;-59
2023/12/02 03:05:24;;;;;;;7.85;2.42;;;;;;;1.01;63.31;99443.44;10319093;28;20433;-59
2023/12/02 03:10:28;;;;;;;6.25;2.10;;;;;;;0.97;64.39;99442.03;10313550;28;20051;-59
2023/12/02 03:15:29;;;;;;;5.25;2.25;;;;;;;1.07;63.56;99445.53;10322389;28;20062;-59
2023/12/02 03:20:31;;;;;;;5.70;2.25;;;;;;;1.09;64.01;99462.09;10320382;28;20106;-59
2023/12/02 03:25:32;;;;;;;4.63;1.58;;;;;;;1.03;63.37;99465.31;10321982;28;20054;-60
2023/12/02 03:30:34;;;;;;;3.75;1.45;;;;;;;0.99;63.46;99464.75;10321191;28;20058;-59
2023/12/02 03:35:35;;;;;;;5.78;2.08;;;;;;;1.05;63.83;99465.16;10313529;28;20046;-59
2023/12/02 03:40:36;;;;;;;3.90;1.15;;;;;;;0.97;63.66;99468.50;10322605;28;20069;-60
2023/12/02 03:45:38;;;;;;;2.03;0.90;;;;;;;1.08;63.81;99483.41;10316632;28;20057;-59
2023/12/02 03:50:39;;;;;;;2.83;1.27;;;;;;;1.03;63.93;99475.88;10307197;28;20072;-59
2023/12/02 03:55:41;;;;;;;3.22;1.02;;;;;;;1.09;62.97;99493.03;10317553;28;20042;-59
2023/12/02 04:00:42;;;;;;;2.33;1.02;;;;;;;0.97;63.26;99506.38;10327133;28;20049;-60
2023/12/02 04:05:44;;;;;;;3.50;1.08;;;;;;;0.91;63.72;99500.75;10321038;28;20066;-59
2023/12/02 04:10:45;;;;;;;4.18;0.88;;;;;;;1.04;63.08;99503.19;10320439;28;20049;-59
2023/12/02 04:15:47;;;;;;;3.20;1.15;;;;;;;0.93;63.79;99504.16;10321857;28;20053;-59
2023/12/02 04:20:48;;;;;;;1.75;0.70;;;;;;;0.88;62.80;99506.34;10322827;28;20041;-59
2023/12/02 04:25:50;;;;;;;1.80;1.15;;;;;;;0.83;63.33;99514.69;10319892;28;20050;-59
2023/12/02 04:30:52;;;;;;;2.85;1.10;;;;;;;0.81;63.34;99503.41;10327855;28;20057;-60
2023/12/02 04:35:53;;;;;;;4.07;0.70;;;;;;;0.87;62.84;99513.44;10317823;28;20053;-59
2023/12/02 04:40:55;;;;;;;2.30;0.73;;;;;;;0.89;63.37;99518.59;10316902;28;20045;-59
2023/12/02 04:45:56;;;;;;;2.92;0.95;;;;;;;0.81;63.33;99529.88;10320847;28;20037;-59
2023/12/02 04:50:58;;;;;;;2.17;1.10;;;;;;;0.80;63.30;99525.53;10321781;28;20053;-59
2023/12/02 04:55:59;;;;;;;2.05;0.90;;;;;;;0.84;62.38;99536.69;10314314;28;20486;-59
2023/12/02 05:01:00;;;;;;;2.65;1.38;;;;;;;0.85;62.62;99544.50;10320332;28;20379;-59
2023/12/02 05:06:02;;;;;;;3.08;1.13;;;;;;;0.81;62.33;99532.50;10321586;28;20062;-59
2023/12/02 05:11:04;;;;;;;3.13;1.50;;;;;;;0.82;62.36;99549.22;10322629;28;20053;-59
2023/12/02 05:16:06;;;;;;;3.55;1.30;;;;;;;0.68;62.90;99545.13;10319709;28;20043;-59
2023/12/02 05:21:09;;;;;;;4.25;2.10;;;;;;;0.73;63.31;99549.03;10312082;28;20064;-59
2023/12/02 05:26:11;;;;;;;6.32;1.77;;;;;;;0.69;63.35;99570.56;10316635;28;20186;-59
2023/12/02 05:31:12;;;;;;;5.65;1.48;;;;;;;0.69;63.47;99579.38;10323678;28;20034;-59
2023/12/02 05:36:14;;;;;;;2.60;1.35;;;;;;;0.81;62.56;99590.72;10316464;28;20521;-60
2023/12/02 05:41:15;;;;;;;2.83;1.55;;;;;;;0.93;62.97;99602.88;10318202;28;20051;-59
2023/12/02 05:46:17;;;;;;;5.25;2.20;;;;;;;1.07;62.85;99614.91;10333315;28;20058;-60
2023/12/02 05:51:19;;;;;;;4.20;1.85;;;;;;;1.07;62.12;99624.66;10330836;28;20677;-60
2023/12/02 05:56:21;;;;;;;4.38;2.22;;;;;;;1.02;62.90;99629.50;10331487;28;20422;-61
2023/12/02 06:01:22;;;;;;;6.15;2.03;;;;;;;0.91;62.60;99638.34;10325123;28;20089;-60
2023/12/02 06:06:24;;;;;;;4.90;1.83;;;;;;;0.84;62.65;99638.03;10322385;28;20058;-60
2023/12/02 06:11:25;;;;;;;6.85;1.90;;;;;;;0.90;63.06;99637.50;10333147;28;20116;-60
2023/12/02 06:16:26;;;;;;;4.85;2.35;;;;;;;0.77;62.71;99640.38;10332395;28;20050;-61
2023/12/02 06:21:28;;;;;;;8.45;2.03;;;;;;;0.68;63.10;99654.38;10330834;28;20051;-60
2023/12/02 06:26:29;;;;;;;5.38;2.42;;;;;;;0.73;63.33;99651.34;10321936;28;20442;-61
2023/12/02 06:31:31;;;;;;;4.00;1.70;;;;;;;0.68;63.73;99658.84;10334763;28;20049;-60
2023/12/02 06:36:33;;;;;;;3.70;1.55;;;;;;;0.60;63.35;99651.56;10336503;28;20072;-60
2023/12/02 06:41:35;;;;;;;4.28;1.70;;;;;;;0.53;62.97;99663.59;10327378;28;20111;-60
2023/12/02 06:46:36;;;;;;;4.47;2.33;;;;;;;0.51;62.88;99671.66;10332578;28;20049;-60
2023/12/02 06:51:38;;;;;;;4.70;1.85;;;;;;;0.58;63.62;99678.13;10319737;28;20053;-60
2023/12/02 06:56:40;;;;;;;7.45;2.00;;;;;;;0.49;62.76;99697.38;10325692;28;20704;-59
2023/12/02 07:01:42;;;;;;;3.60;2.05;;;;;;;0.58;63.16;99709.84;10321967;28;20501;-62
2023/12/02 07:06:43;;;;;;;4.20;1.73;;;;;;;0.73;62.33;99717.47;10318501;28;20053;-62
2023/12/02 07:11:45;;;;;;;4.32;1.88;;;;;;;0.67;63.26;99725.91;10312976;28;20058;-62
2023/12/02 07:16:46;;;;;;;5.45;2.10;;;;;;;0.80;62.67;99729.22;10323255;28;21197;-62
2023/12/02 07:21:48;;;;;;;3.80;1.52;;;;;;;0.84;62.00;99725.34;10319498;28;20043;-62
2023/12/02 07:26:49;;;;;;;3.58;1.60;;;;;;;0.82;62.39;99723.81;10319301;28;20057;-63
2023/12/02 07:31:50;;;;;;;3.60;1.92;;;;;;;0.80;62.55;99718.63;10310953;28;20057;-62
2023/12/02 07:36:52;;;;;;;6.15;2.30;;;;;;;0.82;62.26;99727.28;10313772;28;20625;-63
2023/12/02 07:41:53;;;;;;;4.07;2.08;;;;;;;0.90;62.15;99737.22;10323657;28;20062;-62
2023/12/02 07:46:55;;;;;;;5.05;1.75;;;;;;;0.83;61.99;99744.84;10323379;28;20057;-62
2023/12/02 07:51:56;;;;;;;3.90;2.05;;;;;;;0.86;62.60;99760.44;10322893;28;20046;-63
2023/12/02 07:56:58;;;;;;;4.43;1.80;;;;;;;0.83;62.69;99776.59;10321640;28;20080;-61
2023/12/02 08:01:59;;;;;;;4.80;1.88;;;;;;;0.83;61.82;99783.66;10327254;28;20423;-61
2023/12/02 08:07:00;;;;;;;5.25;1.75;;;;;;;0.84;61.65;99780.91;10352287;28;20057;-62
2023/12/02 08:12:02;;;;;;;4.97;1.40;;;;;;;0.76;61.83;99784.19;10351226;28;20390;-62
2023/12/02 08:17:04;;;;;;;5.55;2.35;;;;;;;0.73;62.15;99787.09;10345350;28;20061;-62
2023/12/02 08:22:05;;;;;;;3.90;1.77;;;;;;;0.91;62.10;99799.72;10348359;28;20057;-62
2023/12/02 08:27:07;;;;;;;4.30;1.63;;;;;;;1.01;61.79;99807.75;10355474;28;20476;-61
2023/12/02 08:32:08;;;;;;;6.70;1.45;;;;;;;1.08;61.10;99803.63;10331841;28;20050;-61
2023/12/02 08:37:09;;;;;;;3.50;1.60;;;;;;;1.10;61.94;99807.81;10326969;28;20042;-62
2023/12/02 08:42:11;;;;;;;6.15;2.13;;;;;;;1.23;61.28;99810.28;10330138;28;20060;-62
2023/12/02 08:47:12;;;;;;;3.25;1.45;;;;;;;1.29;61.50;99811.59;10330323;28;20057;-62
2023/12/02 08:52:13;;;;;;;1.98;1.10;;;;;;;1.24;61.49;99825.19;10325463;28;20138;-62
2023/12/02 08:57:15;;;;;;;4.13;1.98;;;;;;;1.36;60.70;99818.03;10338179;28;20393;-62
2023/12/02 09:02:16;;;;;;;3.30;1.40;;;;;;;1.27;61.48;99822.31;10325488;28;20053;-62
2023/12/02 09:07:18;;;;;;;3.78;1.63;;;;;;;1.20;61.41;99826.41;10340256;28;20126;-65
2023/12/02 09:12:19;;;;;;;5.05;2.30;;;;;;;1.29;60.68;99828.31;10367976;28;20075;-65
2023/12/02 09:17:59;;;;;;;3.92;1.70;;;;;;;1.17;61.44;99840.75;10370187;28;20066;-65
2023/12/02 09:23:01;;;;;;;3.20;1.50;;;;;;;1.04;60.85;99845.38;10364962;28;20093;-65
2023/12/02 09:28:06;;;;;;;3.33;1.58;;;;;;;0.98;61.28;99864.44;10373001;28;20038;-64
2023/12/02 09:33:08;;;;;;;3.30;1.60;;;;;;;1.08;60.28;99864.50;10342364;28;20046;-62
2023/12/02 09:38:09;;;;;;;4.07;1.63;;;;;;;1.04;61.21;99874.50;10332775;28;20081;-61
2023/12/02 09:43:22;;;;;;;3.70;1.30;;;;;;;0.99;60.62;99874.06;10339077;28;20049;-61
2023/12/02 09:48:26;;;;;;;6.40;2.60;;;;;;;1.02;60.62;99881.72;10338272;28;20065;-61
2023/12/02 09:53:46;;;;;;;3.38;1.65;;;;;;;1.16;60.28;99888.53;10356582;28;20060;-62
2023/12/02 09:58:50;;;;;;;3.45;1.75;;;;;;;1.12;59.99;99895.03;10352499;28;20042;-62
2023/12/02 10:04:02;;;;;;;6.22;2.53;;;;;;;1.25;60.07;99908.13;10361727;28;20069;-62
2023/12/02 10:09:10;;;;;;;2.10;1.00;;;;;;;1.28;59.91;99908.69;10364124;28;20048;-61
2023/12/02 10:14:11;;;;;;;3.38;1.90;;;;;;;1.43;59.95;99909.22;10374882;28;20090;-61
2023/12/02 10:19:29;;;;;;;5.18;1.35;;;;;;;1.41;59.96;99911.16;10373199;28;20060;-60
2023/12/02 10:24:40;;;;;;;3.53;1.65;;;;;;;1.41;59.76;99908.50;10362503;28;20049;-58
2023/12/02 10:29:59;;;;;;;5.82;1.70;;;;;;;1.30;59.81;99911.22;10331588;28;20056;-62
2023/12/02 10:35:15;;;;;;;5.45;1.52;;;;;;;1.44;59.30;99907.41;10369437;28;20041;-61
2023/12/02 10:40:22;;;;;;;5.97;1.77;;;;;;;1.48;59.92;99909.69;10353349;28;20057;-61
2023/12/02 10:45:25;;;;;;;3.70;1.53;;;;;;;1.53;59.94;99918.06;10369221;28;20039;-61
2023/12/02 10:50:28;;;;;;;3.80;1.40;;;;;;;1.34;59.39;99912.63;10377432;28;20065;-62
2023/12/02 10:55:32;;;;;;;2.75;1.77;;;;;;;1.11;60.06;99917.19;10365543;28;20049;-62
2023/12/02 11:00:35;;;;;;;3.35;1.80;;;;;;;1.15;59.53;99913.34;10362020;28;20900;-61
2023/12/02 11:05:44;;;;;;;2.20;1.05;;;;;;;1.26;59.66;99905.31;10360023;28;20118;-61
2023/12/02 11:10:55;;;;;;;2.47;1.20;;;;;;;1.32;59.35;99903.97;10359683;28;20038;-61
2023/12/02 11:16:25;;;;;;;2.25;1.23;;;;;;;1.17;59.36;99908.75;10364420;28;20140;-61
2023/12/02 11:21:54;;;;;;;3.42;1.20;;;;;;;1.21;59.46;99923.41;10362782;28;20045;-61
2023/12/02 11:27:14;;;;;;;;;;;;;;;1.24;59.50;99933.72;10363615;28;20145;-61
2023/12/02 11:32:23;;;;;;;3.88;1.30;;;;;;;1.35;59.34;99939.00;10361924;28;19932;-62
2023/12/02 11:37:46;;;;;;;3.15;1.38;;;;;;;1.30;59.22;99940.34;10365756;28;20105;-61
2023/12/02 11:43:35;;;;;;;4.95;1.83;;;;;;;1.28;59.61;99940.44;10361270;28;20056;-61
2023/12/02 11:48:57;;;;;;;3.05;1.48;;;;;;;1.29;59.73;99944.78;10349510;28;20061;-61
2023/12/02 11:54:27;;;;;;;3.33;1.33;;;;;;;1.16;59.69;99960.00;10360211;28;20042;-61
2023/12/02 11:59:42;;;;;;;3.00;1.10;;;;;;;1.10;59.18;99963.97;10353353;28;20054;-62
2023/12/02 12:05:02;;;;;;;3.85;1.50;;;;;;;1.28;59.13;99968.75;10348550;28;20161;-62
2023/12/02 12:10:17;;;;;;;3.17;1.25;;;;;;;1.29;59.58;99973.91;10377646;28;20114;-63
2023/12/02 12:15:18;;;;;;;4.25;1.35;;;;;;;1.28;59.13;99981.97;10375712;28;20109;-62
2023/12/02 12:20:22;;;;;;;3.97;1.95;;;;;;;1.34;59.49;99978.81;10371694;28;20054;-63
2023/12/02 12:25:29;;;;;;;2.45;1.17;;;;;;;1.34;59.38;99987.63;10373040;28;20060;-63
2023/12/02 12:30:48;;;;;;;3.15;1.35;;;;;;;1.37;58.58;100007.72;10375190;28;20042;-63
2023/12/02 12:35:49;;;;;;;2.85;1.45;;;;;;;1.55;58.42;100010.66;10368140;28;20038;-63
2023/12/02 12:40:51;;;;;;;5.65;1.50;;;;;;;1.48;59.02;100020.94;10376836;28;20033;-63
2023/12/02 12:45:54;;;;;;;6.55;2.63;;;;;;;1.54;58.31;100023.06;10338501;28;20049;-63
2023/12/02 12:50:59;;;;;;;4.45;1.20;;;;;;;1.45;58.78;100037.06;10329301;28;20057;-63
2023/12/02 12:56:07;;;;;;;1.70;1.00;;;;;;;1.44;58.86;100040.66;10319193;28;20480;-63
2023/12/02 13:01:10;;;;;;;6.82;1.58;;;;;;;1.38;58.51;100049.97;10314638;28;20370;-63
2023/12/02 13:06:23;;;;;;;3.88;1.83;;;;;;;1.41;57.98;100053.34;10319863;28;20113;-63
2023/12/02 13:11:29;;;;;;;4.00;1.70;;;;;;;1.52;57.65;100059.44;10308793;28;20051;-63
2023/12/02 13:16:32;;;;;;;4.15;1.67;;;;;;;1.50;57.83;100066.66;10321497;28;20133;-63
2023/12/02 13:21:36;;;;;;;4.10;1.52;;;;;;;1.68;57.82;100072.28;10319896;28;20069;-63
2023/12/02 13:26:39;;;;;;;4.80;1.40;;;;;;;1.63;57.69;100087.69;10320416;28;20093;-63
2023/12/02 13:31:40;;;;;;;3.17;1.52;;;;;;;1.57;57.88;100089.03;10318309;28;20076;-64
2023/12/02 13:36:50;;;;;;;2.50;1.27;;;;;;;1.86;57.13;100101.72;10315586;28;20068;-64
2023/12/02 13:41:53;;;;;;;2.42;1.00;;;;;;;1.63;57.63;100113.34;10321520;28;20567;-63
2023/12/02 13:47:21;;;;;;;3.92;1.58;;;;;;;1.67;57.98;100120.91;10322142;28;20038;-63
2023/12/02 13:52:41;;;;;;;4.95;1.73;;;;;;;1.63;57.84;100130.06;10321293;28;20046;-64
2023/12/02 13:57:56;;;;;;;2.13;1.00;;;;;;;1.66;57.64;100127.19;10372713;28;20070;-63
2023/12/02 14:03:19;;;;;;;2.75;1.45;;;;;;;1.60;57.16;100140.94;10376690;28;20053;-64
2023/12/02 14:08:21;;;;;;;5.18;1.52;;;;;;;1.63;57.25;100135.38;10384922;28;20077;-63
2023/12/02 14:13:42;;;;;;;5.20;1.35;;;;;;;1.53;57.33;100143.22;10372356;28;20053;-64
2023/12/02 14:19:08;;;;;;;4.40;1.52;;;;;;;1.69;56.88;100157.88;10374397;28;20030;-63
2023/12/02 14:24:22;;;;;;;4.32;1.73;;;;;;;1.66;57.36;100152.81;10379392;28;20049;-63
2023/12/02 14:29:44;;;;;;;3.03;0.82;;;;;;;1.73;57.02;100165.44;10379010;23;20073;-78
2023/12/02 14:35:01;;;;;;;3.00;1.05;;;;;;;1.73;56.50;100173.41;10350120;28;20037;-78
2023/12/02 14:40:14;;;;;;;4.18;1.33;;;;;;;1.78;56.66;100183.66;10351097;28;20065;-79
2023/12/02 14:45:19;;;;;;;2.42;1.15;;;;;;;1.84;56.77;100187.59;10363091;28;20034;-78
2023/12/02 14:50:24;;;;;;;5.00;1.70;;;;;;;1.84;56.78;100200.84;10345756;28;20046;-79
2023/12/02 14:55:31;;;;;;;3.60;1.33;;;;;;;1.84;56.95;100206.13;10363437;28;20033;-78
2023/12/02 15:00:32;;;;;;;3.63;1.73;;;;;;;1.69;56.87;100210.88;10344221;28;20053;-79
2023/12/02 15:05:35;;;;;;;4.78;1.40;;;;;;;1.65;56.83;100218.22;10345375;28;20405;-78
2023/12/02 15:10:38;;;;;;;5.40;1.77;;;;;;;1.56;57.34;100229.53;10348121;28;20667;-78
2023/12/02 15:15:47;;;;;;;4.68;1.60;;;;;;;1.54;57.26;100247.34;10344488;28;20060;-79
2023/12/02 15:21:09;;;;;;;7.22;2.08;;;;;;;1.47;56.58;100251.47;10362903;28;20045;-78
2023/12/02 15:26:12;;;;;;;5.40;2.17;;;;;;;1.41;56.89;100254.59;10364217;28;20057;-79
2023/12/02 15:31:13;;;;;;;4.20;1.85;;;;;;;1.58;56.35;100270.84;10346688;28;20050;-79
2023/12/02 15:36:16;;;;;;;5.60;1.40;;;;;;;1.58;56.56;100273.50;10358420;28;20165;-79
2023/12/02 15:41:18;;;;;;;3.83;1.30;;;;;;;1.73;56.06;100281.19;10341664;28;20057;-79
2023/12/02 15:46:21;;;;;;;7.18;1.98;;;;;;;1.69;56.94;100290.34;10328419;28;20124;-79
2023/12/02 15:51:23;;;;;;;1.90;0.95;;;;;;;1.53;56.72;100301.31;10319115;28;20073;-80
2023/12/02 15:56:28;;;;;;;2.22;1.10;;;;;;;1.52;56.56;100303.13;10326676;28;20058;-81
2023/12/02 16:01:30;;;;;;;3.13;1.67;;;;;;;1.49;56.86;100321.06;10330386;28;20370;-78
2023/12/02 16:06:32;;;;;;;6.18;1.58;;;;;;;1.34;57.45;100326.56;10333454;28;20497;-77
2023/12/02 16:11:36;;;;;;;4.43;1.65;;;;;;;1.34;57.09;100334.50;10334124;28;20046;-77
2023/12/02 16:16:38;;;;;;;3.45;1.50;;;;;;;1.27;57.19;100346.53;10348208;28;20069;-77
2023/12/02 16:21:40;;;;;;;4.13;2.10;;;;;;;1.33;56.91;100351.34;10347407;28;20054;-77
2023/12/02 16:26:42;;;;;;;2.22;1.20;;;;;;;1.38;57.48;100351.00;10347247;28;20128;-77
2023/12/02 16:31:44;;;;;;;3.30;1.17;;;;;;;1.29;56.97;100360.50;10350149;28;20042;-77
2023/12/02 16:36:51;;;;;;;5.15;2.25;;;;;;;1.16;57.96;100355.25;10365230;28;20072;-77
2023/12/02 16:41:53;;;;;;;4.68;1.50;;;;;;;1.23;57.61;100370.72;10349138;28;20077;-77
2023/12/02 16:46:54;;;;;;;6.20;2.28;;;;;;;1.19;57.81;100383.34;10406687;28;20049;-77
2023/12/02 16:51:56;;;;;;;3.80;1.90;;;;;;;1.11;57.69;100389.19;10395251;28;20037;-78
2023/12/02 16:57:01;;;;;;;5.07;2.20;;;;;;;0.98;58.18;100397.19;10403345;28;20077;-77
2023/12/02 17:02:03;;;;;;;5.43;2.15;;;;;;;0.95;57.69;100405.38;10403475;28;20042;-77
2023/12/02 17:07:04;;;;;;;6.10;1.75;;;;;;;0.94;57.97;100421.34;10369712;28;20101;-77
2023/12/02 17:12:09;;;;;;;3.10;1.30;;;;;;;0.92;57.97;100420.63;10396807;28;20042;-78
2023/12/02 17:17:13;;;;;;;3.78;1.95;;;;;;;0.90;57.64;100419.88;10391449;28;20057;-77
2023/12/02 17:22:17;;;;;;;3.90;1.60;;;;;;;0.71;57.71;100423.88;10358788;28;20326;-77
2023/12/02 17:27:31;;;;;;;4.40;1.58;;;;;;;0.69;58.43;100435.50;10381405;28;20029;-77
2023/12/02 17:32:32;;;;;;;6.70;2.47;;;;;;;0.56;57.93;100436.41;10402072;28;20044;-77
2023/12/02 17:37:34;;;;;;;7.68;2.85;;;;;;;0.50;58.43;100442.13;10382866;28;20038;-76
2023/12/02 17:42:35;;;;;;;11.05;3.80;;;;;;;0.40;58.22;100454.31;10410386;28;20049;-78
2023/12/02 17:47:37;;;;;;;5.05;2.95;;;;;;;0.32;58.34;100454.00;10379314;28;20050;-80
2023/12/02 17:52:38;;;;;;;7.63;3.92;;;;;;;0.33;58.29;100461.81;10353779;28;20050;-77
2023/12/02 17:57:40;;;;;;;8.57;3.58;;;;;;;0.28;58.40;100466.59;10362401;28;20107;-81
2023/12/02 18:02:42;;;;;;;7.47;3.33;;;;;;;0.17;58.42;100472.59;10363059;28;20042;-81
2023/12/02 18:07:43;;;;;;;5.95;3.00;;;;;;;0.14;59.24;100472.00;10347151;28;20050;-80
2023/12/02 18:12:45;;;;;;;8.45;3.03;;;;;;;0.08;58.75;100475.91;10342917;28;20056;-80
2023/12/02 18:17:47;;;;;;;6.82;2.60;;;;;;;0.01;58.90;100493.13;10328012;28;20366;-81
2023/12/02 18:22:49;;;;;;;6.97;2.90;;;;;;;-0.05;59.20;100494.38;10346629;28;20038;-78
2023/12/02 18:27:50;;;;;;;7.95;3.08;;;;;;;-0.07;59.20;100492.81;10364623;28;20137;-79
2023/12/02 18:32:52;;;;;;;7.20;3.58;;;;;;;0.01;59.75;100502.84;10338471;28;20046;-79
2023/12/02 18:37:54;;;;;;;8.95;4.22;;;;;;;0.09;58.94;100505.81;10346559;28;20050;-80
2023/12/02 18:42:55;;;;;;;7.03;3.72;;;;;;;0.14;59.34;100514.28;10362790;28;20046;-79
2023/12/02 18:47:58;;;;;;;14.05;6.07;;;;;;;0.00;59.57;100525.78;10339001;28;20156;-80
2023/12/02 18:53:00;;;;;;;14.98;5.70;;;;;;;0.07;59.55;100532.34;10341037;28;20057;-80
2023/12/02 18:58:01;;;;;;;21.42;8.13;;;;;;;0.21;59.08;100549.06;10362357;28;20112;-81
2023/12/02 19:03:13;;;;;;;15.88;6.15;;;;;;;0.34;59.28;100555.22;10353870;28;20041;-78
2023/12/02 19:08:21;;;;;;;13.02;5.25;;;;;;;0.37;58.72;100553.19;10404075;28;20046;-79
2023/12/02 19:13:23;;;;;;;9.98;3.72;;;;;;;0.32;59.71;100554.47;10383155;28;20069;-79
2023/12/02 19:18:25;;;;;;;12.77;5.03;;;;;;;0.26;59.87;100557.50;10400101;28;20056;-80
2023/12/02 19:23:28;;;;;;;13.93;4.18;;;;;;;0.20;60.09;100572.00;10376130;28;20042;-80
2023/12/02 19:28:29;;;;;;;15.98;5.15;;;;;;;0.26;60.30;100571.59;10385276;28;20053;-79
2023/12/02 19:33:31;;;;;;;12.43;5.32;;;;;;;0.30;60.04;100557.22;10370782;28;20041;-78
2023/12/02 19:38:33;;;;;;;11.07;5.35;;;;;;;0.33;59.89;100574.66;10414358;28;20179;-78
2023/12/02 19:43:35;;;;;;;11.30;4.65;;;;;;;0.31;59.81;100579.19;10363125;28;20049;-77
2023/12/02 19:48:36;;;;;;;13.27;4.95;;;;;;;0.32;59.98;100586.19;10388079;28;20559;-79
2023/12/02 19:53:39;;;;;;;27.77;10.15;;;;;;;0.23;60.38;100597.38;10348930;28;20049;-78
2023/12/02 19:58:40;;;;;;;58.22;17.42;;;;;;;0.11;60.58;100585.84;10374761;28;20046;-77
2023/12/02 20:03:42;;;;;;;31.70;9.07;;;;;;;0.11;60.88;100591.97;10340878;28;20041;-78
2023/12/02 20:08:44;;;;;;;15.10;6.53;;;;;;;0.13;61.48;100605.91;10366080;28;20042;-77
2023/12/02 20:13:46;;;;;;;16.20;6.30;;;;;;;0.17;60.60;100599.47;10399387;28;20049;-76
2023/12/02 20:18:50;;;;;;;16.88;7.00;;;;;;;0.21;60.38;100607.22;10363078;28;20045;-76
2023/12/02 20:23:52;;;;;;;28.35;8.18;;;;;;;0.23;60.90;100615.88;10381740;28;20041;-77
2023/12/02 20:28:54;;;;;;;21.45;7.28;;;;;;;0.18;60.80;100624.13;10433921;28;20057;-77
2023/12/02 20:33:56;;;;;;;17.67;6.35;;;;;;;0.20;61.05;100632.81;10382933;28;20489;-77
2023/12/02 20:38:58;;;;;;;18.58;7.07;;;;;;;0.27;60.71;100630.59;10366352;28;20042;-78
2023/12/02 20:44:00;;;;;;;13.60;5.82;;;;;;;0.28;61.20;100633.13;10357694;28;20049;-77
2023/12/02 20:49:02;;;;;;;15.18;5.60;;;;;;;0.37;61.42;100639.59;10357948;28;20084;-75
2023/12/02 20:54:04;;;;;;;20.38;6.85;;;;;;;0.44;61.32;100640.88;10353489;28;20048;-78
2023/12/02 20:59:06;;;;;;;19.02;7.05;;;;;;;0.49;60.88;100641.41;10389452;28;20598;-76
2023/12/02 21:04:07;;;;;;;16.33;6.38;;;;;;;0.62;61.13;100643.25;10352215;28;20046;-77
2023/12/02 21:09:11;;;;;;;17.33;6.25;;;;;;;0.58;61.59;100646.06;10376017;28;20037;-77
2023/12/02 21:14:13;;;;;;;15.50;6.05;;;;;;;0.63;61.50;100645.75;10358555;28;20042;-78
2023/12/02 21:19:16;;;;;;;14.18;5.80;;;;;;;0.69;61.39;100644.50;10353911;28;20096;-77
2023/12/02 21:24:19;;;;;;;19.15;6.97;;;;;;;0.72;60.79;100639.84;10360186;28;20050;-76
2023/12/02 21:29:21;;;;;;;15.70;7.10;;;;;;;0.58;61.70;100656.66;10368561;28;20050;-77
2023/12/02 21:34:22;;;;;;;14.52;7.32;;;;;;;0.58;61.04;100658.47;10366700;28;21192;-76
2023/12/02 21:39:24;;;;;;;16.70;6.55;;;;;;;0.57;61.33;100670.84;10370033;28;20085;-77
2023/12/02 21:44:26;;;;;;;17.63;6.15;;;;;;;0.53;61.32;100669.38;10382532;28;20049;-78
2023/12/02 21:49:28;;;;;;;19.35;6.80;;;;;;;0.50;61.62;100682.78;10349388;28;20133;-76
2023/12/02 21:54:35;;;;;;;19.98;7.38;;;;;;;0.52;60.92;100686.16;10382643;28;20046;-76
2023/12/02 21:59:37;;;;;;;18.38;7.60;;;;;;;0.57;61.44;100692.00;10343278;28;20081;-77
2023/12/02 22:04:40;;;;;;;17.05;7.43;;;;;;;0.71;61.19;100703.44;10352954;28;20065;-76
2023/12/02 22:09:41;;;;;;;18.27;6.43;;;;;;;0.72;61.14;100708.63;10362148;28;20050;-77
2023/12/02 22:14:43;;;;;;;20.52;7.40;;;;;;;0.73;60.67;100709.47;10351007;28;20038;-77
2023/12/02 22:19:46;;;;;;;23.85;7.82;;;;;;;0.74;61.13;100711.19;10382357;28;20049;-76
2023/12/02 22:24:48;;;;;;;19.27;7.57;;;;;;;0.62;61.08;100725.25;10389558;28;20050;-77
2023/12/02 22:29:50;;;;;;;23.95;8.07;;;;;;;0.56;61.27;100722.03;10376906;28;20053;-76
2023/12/02 22:34:51;;;;;;;19.90;8.40;;;;;;;0.46;61.64;100731.53;10345334;28;20511;-77
2023/12/02 22:39:53;;;;;;;21.63;9.32;;;;;;;0.42;61.63;100731.84;10394213;28;20065;-77
2023/12/02 22:44:54;;;;;;;20.83;8.27;;;;;;;0.33;61.51;100742.06;10357672;28;20053;-77
2023/12/02 22:49:56;;;;;;;18.48;7.93;;;;;;;0.28;61.86;100745.97;10362976;28;20038;-77
2023/12/02 22:54:58;;;;;;;19.15;6.32;;;;;;;0.31;61.52;100758.97;10365734;28;20451;-76
2023/12/02 23:00:00;;;;;;;18.85;7.03;;;;;;;0.33;61.85;100757.09;10375255;28;20050;-77
2023/12/02 23:05:03;;;;;;;20.77;6.65;;;;;;;0.32;61.85;100760.69;10355055;28;20041;-76
2023/12/02 23:10:25;;;;;;;18.83;7.50;;;;;;;0.41;62.30;100769.81;10386433;28;20081;-77
2023/12/02 23:15:34;;;;;;;19.27;6.57;;;;;;;0.52;61.62;100772.59;10372096;28;20050;-78
2023/12/02 23:20:37;;;;;;;17.88;7.22;;;;;;;0.53;62.22;100775.16;10361789;28;20050;-77
2023/12/02 23:25:39;;;;;;;17.13;7.70;;;;;;;0.52;61.55;100770.81;10355370;28;20052;-77
2023/12/02 23:30:40;;;;;;;16.77;7.72;;;;;;;0.52;62.03;100780.53;10369343;28;20077;-78
2023/12/02 23:35:42;;;;;;;20.92;7.40;;;;;;;0.53;62.28;100779.56;10336357;28;20050;-76
2023/12/02 23:40:45;;;;;;;17.35;6.82;;;;;;;0.41;62.49;100778.59;10354469;28;20501;-76